createdAt,value
2023-03-22T00:00:15.412Z,14.95
2023-03-22T00:00:50.277Z,14.68
2023-03-22T00:01:23.986Z,16.67
2023-03-22T00:01:56.179Z,14.73
2023-03-22T00:02:31.029Z,18.95
2023-03-22T00:03:03.579Z,14.15
2023-03-22T00:03:35.942Z,16.73
2023-03-22T00:04:13.464Z,14.90
2023-03-22T00:04:45.836Z,16.55
2023-03-22T00:05:17.946Z,16.25
2023-03-22T00:05:50.447Z,16.17
2023-03-22T00:06:25.275Z,15.90
2023-03-22T00:06:57.450Z,15.88
2023-03-22T00:07:29.566Z,16.35
2023-03-22T00:08:05.779Z,16.98
2023-03-22T00:08:38.425Z,16.98
2023-03-22T00:09:10.912Z,16.30
2023-03-22T00:09:45.939Z,15.52
2023-03-22T00:10:18.246Z,16.70
2023-03-22T00:10:50.527Z,15.63
2023-03-22T00:11:26.980Z,17.63
2023-03-22T00:11:59.160Z,16.45
2023-03-22T00:12:31.718Z,17.15
2023-03-22T00:13:07.908Z,15.85
2023-03-22T00:13:40.114Z,15.88
2023-03-22T00:14:12.436Z,15.75
2023-03-22T00:14:47.197Z,15.50
2023-03-22T00:15:19.913Z,16.33
2023-03-22T00:15:52.137Z,16.23
2023-03-22T00:16:27.274Z,18.38
2023-03-22T00:16:59.398Z,16.38
2023-03-22T00:17:32.973Z,16.60
2023-03-22T00:18:08.392Z,16.13
2023-03-22T00:18:41.396Z,15.82
2023-03-22T00:19:19.344Z,14.95
2023-03-22T00:19:54.527Z,16.13
2023-03-22T00:20:30.630Z,16.23
2023-03-22T00:21:05.671Z,16.33
2023-03-22T00:21:37.904Z,15.15
2023-03-22T00:22:11.616Z,16.35
2023-03-22T00:22:46.618Z,15.75
2023-03-22T00:23:18.965Z,15.63
2023-03-22T00:23:53.790Z,17.15
2023-03-22T00:24:26.059Z,16.38
2023-03-22T00:24:58.173Z,16.80
2023-03-22T00:25:33.432Z,15.88
2023-03-22T00:26:06.228Z,16.13
2023-03-22T00:26:38.355Z,15.95
2023-03-22T00:27:13.749Z,16.63
2023-03-22T00:27:46.927Z,16.42
2023-03-22T00:28:19.539Z,16.25
2023-03-22T00:28:54.351Z,15.45
2023-03-22T00:29:26.523Z,15.77
2023-03-22T00:29:58.771Z,15.77
2023-03-22T00:30:31.022Z,16.15
2023-03-22T00:31:06.721Z,15.07
2023-03-22T00:31:39.046Z,15.52
2023-03-22T00:32:11.394Z,16.02
2023-03-22T00:32:46.134Z,15.18
2023-03-22T00:33:19.196Z,15.52
2023-03-22T00:33:51.300Z,15.68
2023-03-22T00:34:28.764Z,16.42
2023-03-22T00:35:01.967Z,15.63
2023-03-22T00:35:34.246Z,16.00
2023-03-22T00:36:11.669Z,15.48
2023-03-22T00:36:43.860Z,17.45
2023-03-22T00:37:16.551Z,15.80
2023-03-22T00:37:51.736Z,15.65
2023-03-22T00:38:35.957Z,15.40
2023-03-22T00:39:16.472Z,16.00
2023-03-22T00:39:48.789Z,15.73
2023-03-22T00:40:21.111Z,14.90
2023-03-22T00:40:57.305Z,16.08
2023-03-22T00:41:29.384Z,15.25
2023-03-22T00:42:01.509Z,16.45
2023-03-22T00:42:36.448Z,14.77
2023-03-22T00:43:08.805Z,16.80
2023-03-22T00:43:41.642Z,16.17
2023-03-22T00:44:16.476Z,16.80
2023-03-22T00:44:50.235Z,16.05
2023-03-22T00:45:22.415Z,15.25
2023-03-22T00:45:57.191Z,15.48
2023-03-22T00:46:29.411Z,15.85
2023-03-22T00:47:01.672Z,15.60
2023-03-22T00:47:36.590Z,15.15
2023-03-22T00:48:10.053Z,14.95
2023-03-22T00:48:46.702Z,16.17
2023-03-22T00:49:19.165Z,15.10
2023-03-22T00:49:54.105Z,14.75
2023-03-22T00:50:28.976Z,14.98
2023-03-22T00:51:01.369Z,15.82
2023-03-22T00:51:36.078Z,15.48
2023-03-22T00:52:10.903Z,14.10
2023-03-22T00:52:42.979Z,13.70
2023-03-22T00:53:15.502Z,15.45
2023-03-22T00:53:52.500Z,14.52
2023-03-22T00:54:24.881Z,15.77
2023-03-22T00:54:57.723Z,15.55
2023-03-22T00:55:30.103Z,15.80
2023-03-22T00:56:05.222Z,16.05
2023-03-22T00:56:45.956Z,17.83
2023-03-22T00:57:19.538Z,14.65
2023-03-22T00:57:54.474Z,15.43
2023-03-22T00:58:26.594Z,15.35
2023-03-22T00:58:58.683Z,14.18
2023-03-22T00:59:37.764Z,14.10
2023-03-22T01:00:14.075Z,15.00
2023-03-22T01:01:05.857Z,15.38
2023-03-22T01:01:40.859Z,16.08
2023-03-22T01:02:13.548Z,14.90
2023-03-22T01:02:47.397Z,15.27
2023-03-22T01:03:35.299Z,15.85
2023-03-22T01:04:07.487Z,16.70
2023-03-22T01:04:46.489Z,14.60
2023-03-22T01:05:24.141Z,15.63
2023-03-22T01:05:56.223Z,14.90
2023-03-22T01:06:28.329Z,14.60
2023-03-22T01:07:07.760Z,15.23
2023-03-22T01:07:42.097Z,14.63
2023-03-22T01:08:15.124Z,14.23
2023-03-22T01:08:51.076Z,15.70
2023-03-22T01:09:23.952Z,14.77
2023-03-22T01:09:56.078Z,14.57
2023-03-22T01:10:31.215Z,15.75
2023-03-22T01:11:03.539Z,16.13
2023-03-22T01:11:35.740Z,14.57
2023-03-22T01:12:10.730Z,15.52
2023-03-22T01:12:42.840Z,14.88
2023-03-22T01:13:17.513Z,15.50
2023-03-22T01:13:52.985Z,16.15
2023-03-22T01:14:25.934Z,15.88
2023-03-22T01:14:58.093Z,16.48
2023-03-22T01:15:30.678Z,15.65
2023-03-22T01:16:05.792Z,15.57
2023-03-22T01:16:38.959Z,15.75
2023-03-22T01:17:11.740Z,15.98
2023-03-22T01:17:46.474Z,14.90
2023-03-22T01:18:18.959Z,15.57
2023-03-22T01:18:53.756Z,15.35
2023-03-22T01:19:27.591Z,17.08
2023-03-22T01:19:59.673Z,14.65
2023-03-22T01:20:37.886Z,15.82
2023-03-22T01:21:11.082Z,16.25
2023-03-22T01:21:43.229Z,15.55
2023-03-22T01:22:17.954Z,14.55
2023-03-22T01:22:50.273Z,16.30
2023-03-22T01:23:22.445Z,15.85
2023-03-22T01:23:57.140Z,14.80
2023-03-22T01:24:29.364Z,15.38
2023-03-22T01:25:01.711Z,15.40
2023-03-22T01:25:36.456Z,16.38
2023-03-22T01:26:08.575Z,16.90
2023-03-22T01:26:41.827Z,15.55
2023-03-22T01:27:16.620Z,15.88
2023-03-22T01:27:48.910Z,16.63
2023-03-22T01:28:21.007Z,15.40
2023-03-22T01:28:55.710Z,14.90
2023-03-22T01:29:27.848Z,16.35
2023-03-22T01:30:00.129Z,15.43
2023-03-22T01:30:35.191Z,15.32
2023-03-22T01:31:07.991Z,15.55
2023-03-22T01:31:40.117Z,15.98
2023-03-22T01:32:14.823Z,15.88
2023-03-22T01:32:47.024Z,15.75
2023-03-22T01:33:20.068Z,15.55
2023-03-22T01:33:54.847Z,15.27
2023-03-22T01:34:28.338Z,16.45
2023-03-22T01:35:00.948Z,16.02
2023-03-22T01:35:42.037Z,16.25
2023-03-22T01:36:15.690Z,15.57
2023-03-22T01:36:48.052Z,16.13
2023-03-22T01:37:25.553Z,15.82
2023-03-22T01:37:58.250Z,16.33
2023-03-22T01:38:30.890Z,17.80
2023-03-22T01:39:07.556Z,16.92
2023-03-22T01:39:40.897Z,15.35
2023-03-22T01:40:15.991Z,16.00
2023-03-22T01:40:50.793Z,15.48
2023-03-22T01:41:23.212Z,16.15
2023-03-22T01:41:55.641Z,15.90
2023-03-22T01:42:31.121Z,16.50
2023-03-22T01:43:12.091Z,15.98
2023-03-22T01:43:46.835Z,17.33
2023-03-22T01:44:20.936Z,17.77
2023-03-22T01:45:32.341Z,16.27
2023-03-22T01:46:39.595Z,15.85
2023-03-22T01:47:12.025Z,14.55
2023-03-22T01:47:48.404Z,16.80
2023-03-22T01:48:29.034Z,16.88
2023-03-22T01:49:03.404Z,16.40
2023-03-22T01:49:35.987Z,15.82
2023-03-22T01:50:12.191Z,17.17
2023-03-22T01:50:56.256Z,16.90
2023-03-22T01:51:29.956Z,16.67
2023-03-22T01:52:27.173Z,16.85
2023-03-22T01:53:08.913Z,15.63
2023-03-22T01:53:45.807Z,16.35
2023-03-22T01:54:27.427Z,15.25
2023-03-22T01:54:59.764Z,15.63
2023-03-22T01:55:48.597Z,16.40
2023-03-22T01:56:35.417Z,15.52
2023-03-22T01:57:08.067Z,15.70
2023-03-22T01:57:45.758Z,14.98
2023-03-22T01:58:25.634Z,15.65
2023-03-22T01:59:03.947Z,15.23
2023-03-22T01:59:52.631Z,14.55
2023-03-22T02:00:49.730Z,14.75
2023-03-22T02:02:00.275Z,15.05
2023-03-22T02:02:36.386Z,15.57
2023-03-22T02:03:25.073Z,15.32
2023-03-22T02:04:03.659Z,14.60
2023-03-22T02:04:39.169Z,15.40
2023-03-22T02:05:13.314Z,16.00
2023-03-22T02:05:51.302Z,14.40
2023-03-22T02:06:27.026Z,16.15
2023-03-22T02:07:15.750Z,14.80
2023-03-22T02:07:52.217Z,15.27
2023-03-22T02:08:25.283Z,15.73
2023-03-22T02:09:08.362Z,16.02
2023-03-22T02:09:41.591Z,14.82
2023-03-22T02:10:16.965Z,15.60
2023-03-22T02:10:59.971Z,14.85
2023-03-22T02:11:35.568Z,15.93
2023-03-22T02:12:25.002Z,15.20
2023-03-22T02:13:14.267Z,15.75
2023-03-22T02:14:11.651Z,14.23
2023-03-22T02:16:18.773Z,14.93
2023-03-22T02:17:09.771Z,14.35
2023-03-22T02:18:06.918Z,15.30
2023-03-22T02:18:54.711Z,15.07
2023-03-22T02:19:59.684Z,14.13
2023-03-22T02:21:05.398Z,15.50
2023-03-22T02:22:10.064Z,14.90
2023-03-22T02:23:23.129Z,14.00
2023-03-22T02:24:28.163Z,15.65
2023-03-22T02:25:27.560Z,15.15
2023-03-22T02:26:41.637Z,14.48
2023-03-22T02:27:28.555Z,14.15
2023-03-22T02:28:21.574Z,15.55
2023-03-22T02:29:01.230Z,15.57
2023-03-22T02:29:45.118Z,14.63
2023-03-22T02:30:51.347Z,15.38
2023-03-22T02:32:07.717Z,15.07
2023-03-22T02:33:05.283Z,14.90
2023-03-22T02:34:02.376Z,16.25
2023-03-22T02:35:10.870Z,15.70
2023-03-22T02:36:14.096Z,15.32
2023-03-22T02:37:07.563Z,15.35
2023-03-22T02:38:08.107Z,14.20
2023-03-22T02:39:01.679Z,15.10
2023-03-22T02:39:45.946Z,14.77
2023-03-22T02:40:28.090Z,15.48
2023-03-22T02:41:09.238Z,15.57
2023-03-22T02:41:54.626Z,16.55
2023-03-22T02:42:41.241Z,14.70
2023-03-22T02:43:26.271Z,14.45
2023-03-22T02:44:05.548Z,14.18
2023-03-22T02:44:45.509Z,14.63
2023-03-22T02:45:24.844Z,16.33
2023-03-22T02:46:06.629Z,15.48
2023-03-22T02:46:47.061Z,15.18
2023-03-22T02:47:25.282Z,14.75
2023-03-22T02:48:08.757Z,15.10
2023-03-22T02:48:51.064Z,14.35
2023-03-22T02:49:32.234Z,16.02
2023-03-22T02:50:12.783Z,15.48
2023-03-22T02:50:50.562Z,14.98
2023-03-22T02:51:29.821Z,15.20
2023-03-22T02:52:10.287Z,15.68
2023-03-22T02:52:47.298Z,14.88
2023-03-22T02:53:25.724Z,15.48
2023-03-22T02:54:06.712Z,17.17
2023-03-22T02:54:44.755Z,15.20
2023-03-22T02:55:25.393Z,15.38
2023-03-22T02:56:02.446Z,15.88
2023-03-22T02:56:41.245Z,15.65
2023-03-22T02:57:23.719Z,16.05
2023-03-22T02:57:58.585Z,15.77
2023-03-22T02:58:37.096Z,15.73
2023-03-22T02:59:14.880Z,16.05
2023-03-22T02:59:48.887Z,16.13
2023-03-22T03:00:21.194Z,16.95
2023-03-22T03:01:01.921Z,16.55
2023-03-22T03:01:38.510Z,15.75
2023-03-22T03:02:18.430Z,15.48
2023-03-22T03:02:57.829Z,15.73
2023-03-22T03:03:32.255Z,15.85
2023-03-22T03:04:09.048Z,15.50
2023-03-22T03:04:49.114Z,15.75
2023-03-22T03:05:24.734Z,14.90
2023-03-22T03:06:02.746Z,15.40
2023-03-22T03:06:46.324Z,14.88
2023-03-22T03:07:23.548Z,15.18
2023-03-22T03:08:00.850Z,14.50
2023-03-22T03:08:37.290Z,15.15
2023-03-22T03:09:14.059Z,14.45
2023-03-22T03:09:47.289Z,15.55
2023-03-22T03:10:23.430Z,16.15
2023-03-22T03:10:55.641Z,16.13
2023-03-22T03:11:27.895Z,14.63
2023-03-22T03:12:03.138Z,16.40
2023-03-22T03:12:35.990Z,15.82
2023-03-22T03:13:12.093Z,15.93
2023-03-22T03:13:47.773Z,14.98
2023-03-22T03:14:24.931Z,16.42
2023-03-22T03:14:57.915Z,15.10
2023-03-22T03:15:31.291Z,15.35
2023-03-22T03:16:08.976Z,14.68
2023-03-22T03:16:41.259Z,14.40
2023-03-22T03:17:29.941Z,16.35
2023-03-22T03:18:27.561Z,14.52
2023-03-22T03:19:03.974Z,15.35
2023-03-22T03:19:44.736Z,16.23
2023-03-22T03:20:30.477Z,15.27
2023-03-22T03:21:09.833Z,15.38
2023-03-22T03:21:54.242Z,15.47
2023-03-22T03:22:41.888Z,15.85
2023-03-22T03:23:26.360Z,14.95
2023-03-22T03:24:10.444Z,14.57
2023-03-22T03:24:52.802Z,15.15
2023-03-22T03:25:31.977Z,15.63
2023-03-22T03:26:15.080Z,15.52
2023-03-22T03:26:54.683Z,15.68
2023-03-22T03:27:32.882Z,15.40
2023-03-22T03:28:14.811Z,15.90
2023-03-22T03:28:51.579Z,15.75
2023-03-22T03:29:36.332Z,14.52
2023-03-22T03:30:13.551Z,14.23
2023-03-22T03:30:56.396Z,14.60
2023-03-22T03:32:11.245Z,14.77
2023-03-22T03:32:49.869Z,15.32
2023-03-22T03:33:26.163Z,14.90
2023-03-22T03:34:09.424Z,14.80
2023-03-22T03:34:49.636Z,14.65
2023-03-22T03:36:02.822Z,14.48
2023-03-22T03:36:38.046Z,14.32
2023-03-22T03:37:14.169Z,16.33
2023-03-22T03:37:53.893Z,14.25
2023-03-22T03:38:30.042Z,14.52
2023-03-22T03:39:07.956Z,15.60
2023-03-22T03:39:47.306Z,15.25
2023-03-22T03:40:28.168Z,16.60
2023-03-22T03:41:06.648Z,15.23
2023-03-22T03:41:44.354Z,17.55
2023-03-22T03:42:17.986Z,15.95
2023-03-22T03:42:54.613Z,14.20
2023-03-22T03:43:27.270Z,14.88
2023-03-22T03:44:00.217Z,14.25
2023-03-22T03:44:38.681Z,14.25
2023-03-22T03:45:11.623Z,15.13
2023-03-22T03:45:45.084Z,14.45
2023-03-22T03:46:20.170Z,14.68
2023-03-22T03:46:54.148Z,14.90
2023-03-22T03:47:29.103Z,15.20
2023-03-22T03:48:08.884Z,14.25
2023-03-22T03:48:47.376Z,15.25
2023-03-22T03:49:22.316Z,13.88
2023-03-22T03:49:57.894Z,14.40
2023-03-22T03:50:30.509Z,14.10
2023-03-22T03:51:03.288Z,14.38
2023-03-22T03:51:50.351Z,13.95
2023-03-22T03:52:24.619Z,13.27
2023-03-22T03:52:57.143Z,14.45
2023-03-22T03:53:30.140Z,13.77
2023-03-22T03:54:04.853Z,14.88
2023-03-22T03:54:37.061Z,15.10
2023-03-22T03:55:11.417Z,14.93
2023-03-22T03:55:48.850Z,13.80
2023-03-22T03:56:21.629Z,15.40
2023-03-22T03:56:55.107Z,15.38
2023-03-22T03:57:29.979Z,17.20
2023-03-22T03:58:02.287Z,16.80
2023-03-22T03:58:34.488Z,15.25
2023-03-22T03:59:09.294Z,16.10
2023-03-22T03:59:41.544Z,15.48
2023-03-22T04:00:25.296Z,16.13
2023-03-22T04:01:32.207Z,15.88
2023-03-22T04:02:19.375Z,15.88
2023-03-22T04:02:52.430Z,16.25
2023-03-22T04:03:46.737Z,15.48
2023-03-22T04:04:41.778Z,14.88
2023-03-22T04:05:14.456Z,15.48
2023-03-22T04:05:49.262Z,14.73
2023-03-22T04:06:21.670Z,16.48
2023-03-22T04:07:03.141Z,14.38
2023-03-22T04:07:36.233Z,14.05
2023-03-22T04:08:08.816Z,13.50
2023-03-22T04:08:45.678Z,14.30
2023-03-22T04:09:20.411Z,14.43
2023-03-22T04:09:57.041Z,14.82
2023-03-22T04:10:37.241Z,13.63
2023-03-22T04:11:12.407Z,15.90
2023-03-22T04:11:45.641Z,14.43
2023-03-22T04:12:21.824Z,15.15
2023-03-22T04:13:14.022Z,15.88
2023-03-22T04:13:49.055Z,14.15
2023-03-22T04:14:26.387Z,15.95
2023-03-22T04:15:00.809Z,14.48
2023-03-22T04:15:37.178Z,13.70
2023-03-22T04:16:12.680Z,12.75
2023-03-22T04:16:45.023Z,14.38
2023-03-22T04:17:21.712Z,14.15
2023-03-22T04:17:54.033Z,14.57
2023-03-22T04:18:29.824Z,13.90
2023-03-22T04:19:06.964Z,16.25
2023-03-22T04:19:39.917Z,14.82
2023-03-22T04:20:13.958Z,14.70
2023-03-22T04:20:49.603Z,14.35
2023-03-22T04:21:22.960Z,16.17
2023-03-22T04:22:02.095Z,16.93
2023-03-22T04:22:38.869Z,15.57
2023-03-22T04:23:11.159Z,12.85
2023-03-22T04:23:46.765Z,13.80
2023-03-22T04:24:21.895Z,16.58
2023-03-22T04:24:56.274Z,14.25
2023-03-22T04:25:34.000Z,13.82
2023-03-22T04:26:19.213Z,14.80
2023-03-22T04:27:00.833Z,15.70
2023-03-22T04:27:37.714Z,15.00
2023-03-22T04:28:17.009Z,14.20
2023-03-22T04:28:49.152Z,16.38
2023-03-22T04:29:23.054Z,16.75
2023-03-22T04:30:02.196Z,14.45
2023-03-22T04:30:54.492Z,15.18
2023-03-22T04:31:53.717Z,15.98
2023-03-22T04:32:29.254Z,15.00
2023-03-22T04:33:07.014Z,15.18
2023-03-22T04:34:05.681Z,15.75
2023-03-22T04:34:53.904Z,13.82
2023-03-22T04:35:29.408Z,14.25
2023-03-22T04:36:04.114Z,14.30
2023-03-22T04:36:42.549Z,14.80
2023-03-22T04:37:32.215Z,15.82
2023-03-22T04:38:18.404Z,14.85
2023-03-22T04:38:51.740Z,15.85
2023-03-22T04:39:30.092Z,14.77
2023-03-22T04:40:22.515Z,15.40
2023-03-22T04:41:10.266Z,14.40
2023-03-22T04:41:49.993Z,13.95
2023-03-22T04:42:22.224Z,14.43
2023-03-22T04:43:04.331Z,13.85
2023-03-22T04:43:57.827Z,15.20
2023-03-22T04:44:30.332Z,13.43
2023-03-22T04:45:06.647Z,12.98
2023-03-22T04:45:40.037Z,13.40
2023-03-22T04:46:12.796Z,13.32
2023-03-22T04:46:54.354Z,12.50
2023-03-22T04:47:26.714Z,12.20
2023-03-22T04:47:59.210Z,12.98
2023-03-22T04:48:35.251Z,14.43
2023-03-22T04:49:08.757Z,13.30
2023-03-22T04:49:44.369Z,13.65
2023-03-22T04:50:20.133Z,13.45
2023-03-22T04:50:57.517Z,14.10
2023-03-22T04:51:32.357Z,13.60
2023-03-22T04:52:21.561Z,13.18
2023-03-22T04:52:58.539Z,12.90
2023-03-22T04:53:31.516Z,13.68
2023-03-22T04:54:10.751Z,12.07
2023-03-22T04:54:45.897Z,12.57
2023-03-22T04:55:18.383Z,13.70
2023-03-22T04:55:53.780Z,13.82
2023-03-22T04:56:27.181Z,13.82
2023-03-22T04:57:02.249Z,13.25
2023-03-22T04:57:41.418Z,14.23
2023-03-22T04:58:13.533Z,14.27
2023-03-22T04:58:46.218Z,13.00
2023-03-22T04:59:22.020Z,12.57
2023-03-22T04:59:55.069Z,13.27
2023-03-22T05:00:30.245Z,13.80
2023-03-22T05:01:06.841Z,13.05
2023-03-22T05:01:42.695Z,13.00
2023-03-22T05:02:20.154Z,13.40
2023-03-22T05:02:56.337Z,13.13
2023-03-22T05:03:38.555Z,12.90
2023-03-22T05:04:10.871Z,12.63
2023-03-22T05:04:45.959Z,12.90
2023-03-22T05:05:28.442Z,13.13
2023-03-22T05:06:02.566Z,13.48
2023-03-22T05:06:46.619Z,12.60
2023-03-22T05:07:33.482Z,11.93
2023-03-22T05:08:07.929Z,11.82
2023-03-22T05:08:42.782Z,11.65
2023-03-22T05:09:16.252Z,12.73
2023-03-22T05:09:48.651Z,14.23
2023-03-22T05:10:24.887Z,14.65
2023-03-22T05:10:59.229Z,10.90
2023-03-22T05:11:31.658Z,12.63
2023-03-22T05:12:28.850Z,12.45
2023-03-22T05:13:04.802Z,11.95
2023-03-22T05:13:41.555Z,13.10
2023-03-22T05:14:18.461Z,13.05
2023-03-22T05:14:51.636Z,12.57
2023-03-22T05:15:32.531Z,13.73
2023-03-22T05:16:07.104Z,13.65
2023-03-22T05:16:49.302Z,12.60
2023-03-22T05:17:24.105Z,12.43
2023-03-22T05:17:59.333Z,13.95
2023-03-22T05:18:32.955Z,12.57
2023-03-22T05:19:13.922Z,11.82
2023-03-22T05:19:49.650Z,12.20
2023-03-22T05:20:21.919Z,14.52
2023-03-22T05:21:08.855Z,11.57
2023-03-22T05:21:44.055Z,14.00
2023-03-22T05:22:16.191Z,14.00
2023-03-22T05:22:57.093Z,12.25
2023-03-22T05:23:32.066Z,12.60
2023-03-22T05:24:05.813Z,14.68
2023-03-22T05:24:40.887Z,14.13
2023-03-22T05:25:18.109Z,12.30
2023-03-22T05:25:58.317Z,12.35
2023-03-22T05:26:30.553Z,13.63
2023-03-22T05:27:04.002Z,13.15
2023-03-22T05:27:43.266Z,12.60
2023-03-22T05:28:40.077Z,12.80
2023-03-22T05:29:22.800Z,13.05
2023-03-22T05:30:13.474Z,12.93
2023-03-22T05:30:59.049Z,13.75
2023-03-22T05:31:42.907Z,12.15
2023-03-22T05:32:18.406Z,12.40
2023-03-22T05:33:00.572Z,14.20
2023-03-22T05:34:10.918Z,14.80
2023-03-22T05:34:45.676Z,12.13
2023-03-22T05:35:31.557Z,11.57
2023-03-22T05:36:11.423Z,12.60
2023-03-22T05:36:54.521Z,12.63
2023-03-22T05:37:35.025Z,12.60
2023-03-22T05:38:07.659Z,11.88
2023-03-22T05:38:42.126Z,13.48
2023-03-22T05:39:16.956Z,12.40
2023-03-22T05:39:49.803Z,11.00
2023-03-22T05:40:22.244Z,11.70
2023-03-22T05:40:57.465Z,12.48
2023-03-22T05:41:31.837Z,12.02
2023-03-22T05:42:04.310Z,11.73
2023-03-22T05:42:42.840Z,12.38
2023-03-22T05:43:22.646Z,14.82
2023-03-22T05:43:56.255Z,14.07
2023-03-22T05:44:31.563Z,12.07
2023-03-22T05:45:11.954Z,11.52
2023-03-22T05:45:48.170Z,11.93
2023-03-22T05:46:38.677Z,12.93
2023-03-22T05:47:31.372Z,12.10
2023-03-22T05:48:10.843Z,11.05
2023-03-22T05:48:43.146Z,13.05
2023-03-22T05:49:18.502Z,12.27
2023-03-22T05:49:50.734Z,11.25
2023-03-22T05:50:24.898Z,12.02
2023-03-22T05:50:59.637Z,12.52
2023-03-22T05:51:41.520Z,12.63
2023-03-22T05:52:15.427Z,14.05
2023-03-22T05:53:00.121Z,11.80
2023-03-22T05:53:38.338Z,13.35
2023-03-22T05:54:15.487Z,12.13
2023-03-22T05:54:56.905Z,12.43
2023-03-22T05:55:32.091Z,12.50
2023-03-22T05:56:10.135Z,12.27
2023-03-22T05:56:44.460Z,14.40
2023-03-22T05:57:17.126Z,13.13
2023-03-22T05:57:54.890Z,12.15
2023-03-22T05:58:29.051Z,11.95
2023-03-22T05:59:01.549Z,11.63
2023-03-22T05:59:36.534Z,12.88
2023-03-22T06:00:13.414Z,10.63
2023-03-22T06:00:50.031Z,12.48
2023-03-22T06:01:31.528Z,11.70
2023-03-22T06:02:32.522Z,11.95
2023-03-22T06:03:05.451Z,12.75
2023-03-22T06:03:45.769Z,11.63
2023-03-22T06:04:25.886Z,10.77
2023-03-22T06:05:11.029Z,12.73
2023-03-22T06:05:46.714Z,11.50
2023-03-22T06:06:19.267Z,12.55
2023-03-22T06:07:07.799Z,12.45
2023-03-22T06:07:45.966Z,13.65
2023-03-22T06:08:23.181Z,13.02
2023-03-22T06:09:10.629Z,12.68
2023-03-22T06:09:50.235Z,10.60
2023-03-22T06:10:29.601Z,11.65
2023-03-22T06:11:01.945Z,12.18
2023-03-22T06:11:35.510Z,10.82
2023-03-22T06:12:12.848Z,10.90
2023-03-22T06:12:45.676Z,11.45
2023-03-22T06:13:31.611Z,12.93
2023-03-22T06:14:03.994Z,10.88
2023-03-22T06:14:53.278Z,12.98
2023-03-22T06:15:46.072Z,11.40
2023-03-22T06:16:27.983Z,11.55
2023-03-22T06:17:00.149Z,9.90
2023-03-22T06:17:32.331Z,12.48
2023-03-22T06:18:07.235Z,11.40
2023-03-22T06:18:44.354Z,11.80
2023-03-22T06:19:20.612Z,11.07
2023-03-22T06:19:54.470Z,11.02
2023-03-22T06:20:26.934Z,11.52
2023-03-22T06:21:08.935Z,13.38
2023-03-22T06:21:42.556Z,10.85
2023-03-22T06:22:17.346Z,10.32
2023-03-22T06:22:49.788Z,10.88
2023-03-22T06:23:25.406Z,11.70
2023-03-22T06:23:58.212Z,11.95
2023-03-22T06:24:30.622Z,13.27
2023-03-22T06:25:05.872Z,11.88
2023-03-22T06:25:43.808Z,11.90
2023-03-22T06:26:19.321Z,12.48
2023-03-22T06:26:51.670Z,14.43
2023-03-22T06:27:23.816Z,10.95
2023-03-22T06:27:58.931Z,10.73
2023-03-22T06:28:33.830Z,13.85
2023-03-22T06:29:07.758Z,12.15
2023-03-22T06:29:42.785Z,12.68
2023-03-22T06:30:15.735Z,13.45
2023-03-22T06:31:11.691Z,12.23
2023-03-22T06:31:52.586Z,13.25
2023-03-22T06:32:26.744Z,10.23
2023-03-22T06:33:05.240Z,11.38
2023-03-22T06:33:40.518Z,12.30
2023-03-22T06:34:24.603Z,10.85
2023-03-22T06:34:59.687Z,9.65
2023-03-22T06:35:32.502Z,11.63
2023-03-22T06:36:08.055Z,10.30
2023-03-22T06:36:54.576Z,10.90
2023-03-22T06:37:38.430Z,9.57
2023-03-22T06:38:13.542Z,10.85
2023-03-22T06:38:45.931Z,11.40
2023-03-22T06:39:20.688Z,11.50
2023-03-22T06:39:55.221Z,13.20
2023-03-22T06:40:30.473Z,9.73
2023-03-22T06:41:05.300Z,9.90
2023-03-22T06:41:37.492Z,9.20
2023-03-22T06:42:10.697Z,14.73
2023-03-22T06:42:45.652Z,13.43
2023-03-22T06:43:21.303Z,10.65
2023-03-22T06:43:58.195Z,12.10
2023-03-22T06:45:05.355Z,11.30
2023-03-22T06:45:40.910Z,10.00
2023-03-22T06:46:13.764Z,10.55
2023-03-22T06:46:55.011Z,12.30
2023-03-22T06:47:45.740Z,11.38
2023-03-22T06:48:45.681Z,13.32
2023-03-22T06:49:21.975Z,11.57
2023-03-22T06:49:56.780Z,9.80
2023-03-22T06:50:39.954Z,10.88
2023-03-22T06:51:18.630Z,12.60
2023-03-22T06:51:51.622Z,10.00
2023-03-22T06:52:26.984Z,13.38
2023-03-22T06:52:59.188Z,10.80
2023-03-22T06:53:33.948Z,11.13
2023-03-22T06:54:07.291Z,12.85
2023-03-22T06:54:39.608Z,11.13
2023-03-22T06:55:14.405Z,10.80
2023-03-22T06:55:46.567Z,9.88
2023-03-22T06:56:31.189Z,9.55
2023-03-22T06:57:03.752Z,9.90
2023-03-22T06:57:35.942Z,11.13
2023-03-22T06:58:10.615Z,11.70
2023-03-22T06:58:42.775Z,10.77
2023-03-22T06:59:17.493Z,10.45
2023-03-22T06:59:52.410Z,12.55
2023-03-22T07:00:24.965Z,13.05
2023-03-22T07:01:00.022Z,13.02
2023-03-22T07:01:34.176Z,15.77
2023-03-22T07:02:06.751Z,13.85
2023-03-22T07:02:41.488Z,10.48
2023-03-22T07:03:36.534Z,10.02
2023-03-22T07:04:17.029Z,12.80
2023-03-22T07:04:54.178Z,8.98
2023-03-22T07:05:26.292Z,11.32
2023-03-22T07:06:04.177Z,11.60
2023-03-22T07:06:38.193Z,8.52
2023-03-22T07:07:10.458Z,8.80
2023-03-22T07:07:45.172Z,12.13
2023-03-22T07:08:17.398Z,11.40
2023-03-22T07:08:54.408Z,8.57
2023-03-22T07:09:34.513Z,12.77
2023-03-22T07:10:08.406Z,13.68
2023-03-22T07:10:40.668Z,13.40
2023-03-22T07:11:15.646Z,10.00
2023-03-22T07:11:51.289Z,10.25
2023-03-22T07:12:23.683Z,10.35
2023-03-22T07:12:58.901Z,11.30
2023-03-22T07:13:31.056Z,11.52
2023-03-22T07:14:07.458Z,11.32
2023-03-22T07:15:08.468Z,13.82
2023-03-22T07:16:00.701Z,10.43
2023-03-22T07:16:42.555Z,11.32
2023-03-22T07:17:15.815Z,11.32
2023-03-22T07:17:48.725Z,10.50
2023-03-22T07:18:23.449Z,10.27
2023-03-22T07:18:56.050Z,8.13
2023-03-22T07:19:28.656Z,10.20
2023-03-22T07:20:04.510Z,10.57
2023-03-22T07:20:38.771Z,10.02
2023-03-22T07:21:11.434Z,10.60
2023-03-22T07:21:48.952Z,9.75
2023-03-22T07:22:22.526Z,11.23
2023-03-22T07:22:57.411Z,8.27
2023-03-22T07:23:35.760Z,10.85
2023-03-22T07:24:13.803Z,9.88
2023-03-22T07:24:56.194Z,9.85
2023-03-22T07:25:34.470Z,9.82
2023-03-22T07:26:19.729Z,9.52
2023-03-22T07:26:57.100Z,9.60
2023-03-22T07:27:32.816Z,7.60
2023-03-22T07:28:10.561Z,8.95
2023-03-22T07:28:44.721Z,11.00
2023-03-22T07:29:21.582Z,10.52
2023-03-22T07:29:54.285Z,8.65
2023-03-22T07:30:29.285Z,11.20
2023-03-22T07:31:05.718Z,8.18
2023-03-22T07:31:48.613Z,8.95
2023-03-22T07:32:36.518Z,9.75
2023-03-22T07:33:15.075Z,9.60
2023-03-22T07:33:48.582Z,9.68
2023-03-22T07:34:24.024Z,9.20
2023-03-22T07:35:56.939Z,10.45
2023-03-22T07:36:29.881Z,8.90
2023-03-22T07:37:06.014Z,11.25
2023-03-22T07:37:38.259Z,9.95
2023-03-22T07:38:15.897Z,9.65
2023-03-22T07:38:48.445Z,10.52
2023-03-22T07:39:29.085Z,8.70
2023-03-22T07:40:01.317Z,8.88
2023-03-22T07:40:37.053Z,11.15
2023-03-22T07:41:14.231Z,9.45
2023-03-22T07:42:07.011Z,7.97
2023-03-22T07:43:01.180Z,10.50
2023-03-22T07:44:00.211Z,12.05
2023-03-22T07:44:47.522Z,10.35
2023-03-22T07:45:28.770Z,9.75
2023-03-22T07:46:23.910Z,10.38
2023-03-22T07:47:40.725Z,11.57
2023-03-22T07:48:31.721Z,9.00
2023-03-22T07:49:30.334Z,10.70
2023-03-22T07:50:19.361Z,10.38
2023-03-22T07:50:59.044Z,10.40
2023-03-22T07:51:32.245Z,10.15
2023-03-22T07:52:04.940Z,10.63
2023-03-22T07:52:40.113Z,10.43
2023-03-22T07:53:13.874Z,9.70
2023-03-22T07:53:46.171Z,10.25
2023-03-22T07:54:33.055Z,11.43
2023-03-22T07:55:09.341Z,10.57
2023-03-22T07:55:45.002Z,11.23
2023-03-22T07:56:17.175Z,11.82
2023-03-22T07:56:49.602Z,9.57
2023-03-22T07:57:24.321Z,11.07
2023-03-22T07:58:03.782Z,11.02
2023-03-22T07:58:36.513Z,10.20
2023-03-22T07:59:11.693Z,11.13
2023-03-22T07:59:46.759Z,10.80
2023-03-22T08:00:20.632Z,10.60
2023-03-22T08:01:10.980Z,10.02
2023-03-22T08:02:01.526Z,10.07
2023-03-22T08:02:46.126Z,15.32
2023-03-22T08:03:33.060Z,10.98
2023-03-22T08:04:13.048Z,10.73
2023-03-22T08:05:03.954Z,11.65
2023-03-22T08:05:44.929Z,10.55
2023-03-22T08:06:21.655Z,9.05
2023-03-22T08:07:00.133Z,10.05
2023-03-22T08:07:33.545Z,11.67
2023-03-22T08:08:06.634Z,10.13
2023-03-22T08:08:41.729Z,8.93
2023-03-22T08:09:13.947Z,10.10
2023-03-22T08:09:49.649Z,9.80
2023-03-22T08:10:22.025Z,10.43
2023-03-22T08:10:54.154Z,10.68
2023-03-22T08:11:28.847Z,10.48
2023-03-22T08:12:01.022Z,9.55
2023-03-22T08:12:33.452Z,10.18
2023-03-22T08:13:16.939Z,10.00
2023-03-22T08:13:49.123Z,8.88
2023-03-22T08:14:27.491Z,8.88
2023-03-22T08:15:14.493Z,11.13